createdAt,value
2023-02-14T00:01:09.777Z,99.90
2023-02-14T00:03:36.745Z,99.90
2023-02-14T00:06:12.400Z,99.90
2023-02-14T00:08:41.178Z,99.90
2023-02-14T00:11:09.016Z,99.90
2023-02-14T00:13:35.898Z,99.90
2023-02-14T00:16:03.619Z,99.90
2023-02-14T00:18:49.113Z,99.90
2023-02-14T00:21:17.968Z,99.90
2023-02-14T00:23:45.118Z,99.90
2023-02-14T00:26:15.505Z,99.90
2023-02-14T00:28:43.342Z,99.90
2023-02-14T00:31:10.759Z,99.90
2023-02-14T00:33:37.687Z,99.90
2023-02-14T00:36:07.123Z,99.90
2023-02-14T00:38:34.389Z,99.90
2023-02-14T00:41:02.181Z,99.90
2023-02-14T00:43:29.316Z,99.90
2023-02-14T00:45:57.646Z,99.90
2023-02-14T00:48:24.609Z,99.90
2023-02-14T00:50:51.506Z,99.90
2023-02-14T00:53:18.344Z,99.90
2023-02-14T00:55:46.960Z,99.90
2023-02-14T00:58:15.073Z,99.90
2023-02-14T01:00:41.969Z,99.90
2023-02-14T01:03:08.807Z,99.90
2023-02-14T01:05:35.757Z,99.90
2023-02-14T01:08:04.429Z,99.90
2023-02-14T01:10:31.468Z,99.90
2023-02-14T01:12:59.165Z,99.90
2023-02-14T01:15:27.769Z,99.90
2023-02-14T01:17:54.654Z,99.90
2023-02-14T01:20:22.009Z,99.90
2023-02-14T01:22:48.924Z,99.90
2023-02-14T01:25:16.028Z,99.90
2023-02-14T01:27:42.842Z,99.90
2023-02-14T01:30:11.023Z,99.90
2023-02-14T01:32:37.847Z,99.90
2023-02-14T01:35:05.374Z,99.90
2023-02-14T01:37:32.236Z,99.90
2023-02-14T01:39:59.359Z,99.90
2023-02-14T01:42:26.704Z,99.90
2023-02-14T01:49:21.797Z,99.90
2023-02-14T01:52:05.712Z,99.90
2023-02-14T01:54:35.588Z,99.90
2023-02-14T01:57:08.028Z,99.90
2023-02-14T01:59:40.881Z,99.90
2023-02-14T02:02:08.325Z,99.90
2023-02-14T02:04:41.088Z,99.90
2023-02-14T02:07:12.307Z,99.90
2023-02-14T02:09:44.836Z,99.90
2023-02-14T02:12:12.292Z,99.90
2023-02-14T02:14:39.746Z,99.90
2023-02-14T02:17:33.835Z,99.90
2023-02-14T02:20:47.531Z,99.90
2023-02-14T02:23:14.223Z,99.90
2023-02-14T02:26:01.027Z,99.90
2023-02-14T02:28:58.425Z,99.90
2023-02-14T02:31:49.437Z,99.90
2023-02-14T02:34:44.532Z,99.90
2023-02-14T02:37:30.385Z,99.90
2023-02-14T02:40:18.110Z,99.90
2023-02-14T02:43:15.976Z,99.90
2023-02-14T02:46:11.652Z,99.90
2023-02-14T02:48:57.076Z,99.90
2023-02-14T02:52:12.845Z,99.90
2023-02-14T02:54:47.408Z,99.90
2023-02-14T02:57:22.577Z,99.90
2023-02-14T02:59:50.900Z,99.90
2023-02-14T03:02:59.798Z,99.90
2023-02-14T03:05:30.918Z,99.90
2023-02-14T03:07:58.029Z,99.90
2023-02-14T03:10:30.137Z,99.90
2023-02-14T03:12:59.562Z,99.90
2023-02-14T03:15:35.198Z,99.90
2023-02-14T03:18:18.349Z,99.90
2023-02-14T03:21:06.669Z,99.90
2023-02-14T03:23:36.718Z,99.90
2023-02-14T03:26:10.470Z,99.90
2023-02-14T03:28:59.209Z,99.90
2023-02-14T03:31:36.175Z,99.90
2023-02-14T03:34:21.115Z,99.90
2023-02-14T03:36:56.611Z,99.90
2023-02-14T03:39:40.396Z,99.90
2023-02-14T03:42:18.933Z,99.90
2023-02-14T03:44:49.190Z,99.90
2023-02-14T03:47:20.627Z,99.90
2023-02-14T03:49:53.452Z,99.90
2023-02-14T03:52:22.596Z,99.90
2023-02-14T03:54:52.643Z,99.90
2023-02-14T03:57:30.369Z,99.90
2023-02-14T03:59:57.501Z,99.90
2023-02-14T04:02:39.015Z,99.90
2023-02-14T04:05:12.897Z,99.90
2023-02-14T04:08:06.006Z,99.90
2023-02-14T04:10:32.780Z,99.90
2023-02-14T04:12:59.685Z,99.90
2023-02-14T04:15:26.425Z,99.90
2023-02-14T04:18:12.085Z,99.90
2023-02-14T04:20:38.882Z,99.90
2023-02-14T04:23:05.678Z,99.90
2023-02-14T04:25:32.466Z,99.90
2023-02-14T04:27:59.219Z,99.90
2023-02-14T04:30:26.120Z,99.90
2023-02-14T04:32:52.933Z,99.90
2023-02-14T04:35:19.754Z,99.90
2023-02-14T04:37:46.537Z,99.90
2023-02-14T04:40:17.305Z,99.90
2023-02-14T04:42:47.443Z,99.90
2023-02-14T04:45:14.936Z,99.90
2023-02-14T04:47:41.734Z,99.90
2023-02-14T04:50:09.022Z,99.90
2023-02-14T04:52:35.959Z,99.90
2023-02-14T04:55:04.400Z,99.90
2023-02-14T04:57:31.659Z,99.90
2023-02-14T04:59:58.446Z,99.90
2023-02-14T05:02:25.269Z,99.90
2023-02-14T05:04:52.122Z,99.90
2023-02-14T05:07:18.865Z,99.90
2023-02-14T05:09:45.629Z,99.90
2023-02-14T05:12:12.416Z,99.90
2023-02-14T05:14:39.198Z,99.90
2023-02-14T05:17:06.012Z,99.90
2023-02-14T05:19:33.940Z,99.90
2023-02-14T05:22:00.726Z,99.90
2023-02-14T05:24:27.636Z,99.90
2023-02-14T05:26:54.372Z,99.90
2023-02-14T05:29:21.248Z,99.90
2023-02-14T05:31:48.225Z,99.90
2023-02-14T05:34:15.217Z,99.90
2023-02-14T05:36:42.001Z,99.90
2023-02-14T05:39:08.791Z,99.90
2023-02-14T05:41:35.589Z,99.90
2023-02-14T05:44:02.415Z,99.90
2023-02-14T05:46:29.335Z,99.90
2023-02-14T05:48:56.096Z,99.90
2023-02-14T05:51:22.880Z,99.90
2023-02-14T05:53:49.671Z,99.90
2023-02-14T05:56:16.507Z,99.90
2023-02-14T05:58:43.911Z,99.90
2023-02-14T06:01:10.683Z,99.90
2023-02-14T06:03:37.455Z,99.90
2023-02-14T06:06:04.418Z,99.90
2023-02-14T06:08:31.234Z,99.90
2023-02-14T06:10:58.338Z,99.90
2023-02-14T06:13:25.376Z,99.90
2023-02-14T06:15:52.184Z,99.90
2023-02-14T06:18:19.056Z,99.90
2023-02-14T06:20:45.827Z,99.90
2023-02-14T06:23:12.662Z,99.90
2023-02-14T06:25:39.639Z,99.90
2023-02-14T06:28:06.692Z,99.90
2023-02-14T06:30:33.607Z,99.90
2023-02-14T06:33:00.478Z,99.90
2023-02-14T06:35:27.351Z,99.90
2023-02-14T06:37:54.238Z,99.90
2023-02-14T06:40:21.257Z,99.90
2023-02-14T06:42:48.030Z,99.90
2023-02-14T06:45:14.886Z,99.90
2023-02-14T06:47:41.708Z,99.90
2023-02-14T06:50:11.569Z,99.90
2023-02-14T06:52:38.907Z,99.90
2023-02-14T06:55:06.188Z,99.90
2023-02-14T06:57:32.992Z,99.90
2023-02-14T06:59:59.784Z,99.90
2023-02-14T07:02:26.610Z,99.90
2023-02-14T07:04:53.471Z,99.90
2023-02-14T07:07:20.250Z,99.90
2023-02-14T07:09:47.037Z,99.90
2023-02-14T07:12:13.828Z,99.90
2023-02-14T07:14:40.784Z,99.90
2023-02-14T07:17:07.622Z,99.90
2023-02-14T07:19:34.379Z,99.90
2023-02-14T07:22:01.280Z,99.90
2023-02-14T07:24:28.056Z,99.90
2023-02-14T07:26:54.822Z,99.90
2023-02-14T07:29:21.676Z,99.90
2023-02-14T07:31:49.953Z,99.90
2023-02-14T07:34:16.914Z,99.90
2023-02-14T07:36:44.198Z,99.90
2023-02-14T07:39:11.142Z,99.90
2023-02-14T07:41:38.013Z,99.90
2023-02-14T07:44:09.623Z,99.90
2023-02-14T07:46:36.526Z,99.90
2023-02-14T07:49:03.446Z,99.90
2023-02-14T07:51:30.238Z,99.90
2023-02-14T07:53:56.987Z,99.90
2023-02-14T07:56:23.965Z,99.90
2023-02-14T07:58:50.938Z,99.90
2023-02-14T08:01:18.238Z,99.90
2023-02-14T08:03:49.241Z,99.90
2023-02-14T08:06:20.101Z,99.90
2023-02-14T08:08:47.889Z,99.90
2023-02-14T08:11:33.993Z,99.90
2023-02-14T08:14:01.004Z,99.90
2023-02-14T08:16:27.874Z,99.90
2023-02-14T08:18:54.726Z,99.90
2023-02-14T08:21:21.596Z,99.90
2023-02-14T08:23:48.408Z,99.90
2023-02-14T08:26:15.757Z,99.90
2023-02-14T08:28:43.055Z,99.90
2023-02-14T08:31:10.385Z,99.90
2023-02-14T08:33:37.164Z,99.90
2023-02-14T08:36:04.339Z,99.90
2023-02-14T08:38:31.201Z,99.90
2023-02-14T08:41:05.036Z,99.90
2023-02-14T08:43:34.473Z,99.90
2023-02-14T08:46:01.905Z,99.90
2023-02-14T08:48:28.938Z,99.90
2023-02-14T08:50:55.722Z,99.90
2023-02-14T08:53:22.753Z,99.90
2023-02-14T08:55:49.551Z,99.90
2023-02-14T08:58:16.385Z,99.90
2023-02-14T09:00:43.162Z,99.90
2023-02-14T09:03:10.664Z,99.90
2023-02-14T09:05:37.513Z,99.90
2023-02-14T09:08:04.597Z,99.90
2023-02-14T09:10:31.529Z,99.90
2023-02-14T09:12:58.342Z,99.90
2023-02-14T09:15:25.204Z,99.90
2023-02-14T09:17:52.169Z,99.90
2023-02-14T09:20:19.145Z,99.90
2023-02-14T09:22:48.422Z,99.90
2023-02-14T09:25:15.990Z,99.90
2023-02-14T09:27:42.925Z,99.90
2023-02-14T09:30:10.624Z,99.90
2023-02-14T09:32:37.415Z,99.90
2023-02-14T09:35:04.494Z,99.90
2023-02-14T09:37:50.052Z,99.90
2023-02-14T09:40:19.371Z,99.90
2023-02-14T09:43:26.054Z,99.90
2023-02-14T09:45:56.656Z,99.90
2023-02-14T09:48:29.716Z,99.90
2023-02-14T09:51:11.558Z,99.00
2023-02-14T09:53:49.875Z,99.90
2023-02-14T09:56:22.604Z,99.90
2023-02-14T09:59:19.959Z,99.90
2023-02-14T10:02:16.660Z,99.90
2023-02-14T10:05:02.172Z,99.90
2023-02-14T10:07:57.250Z,99.90
2023-02-14T10:10:44.672Z,96.40
2023-02-14T10:13:22.428Z,97.00
2023-02-14T10:15:56.750Z,94.00
2023-02-14T10:18:46.144Z,92.00
2023-02-14T10:21:22.961Z,93.00
2023-02-14T10:23:55.459Z,92.50
2023-02-14T10:26:52.020Z,92.10
2023-02-14T10:29:20.077Z,90.70
2023-02-14T10:31:55.493Z,90.70
2023-02-14T10:34:29.199Z,93.10
2023-02-14T10:36:55.952Z,87.20
2023-02-14T10:39:25.707Z,90.80
2023-02-14T10:42:09.375Z,90.90
2023-02-14T10:44:54.560Z,90.20
2023-02-14T10:47:30.601Z,82.50
2023-02-14T10:50:04.373Z,82.80
2023-02-14T10:52:58.966Z,81.00
2023-02-14T10:55:46.570Z,80.80
2023-02-14T10:58:17.520Z,77.10
2023-02-14T11:01:00.493Z,75.80
2023-02-14T11:03:29.087Z,78.80
2023-02-14T11:05:56.225Z,77.40
2023-02-14T11:08:32.040Z,73.60
2023-02-14T11:11:16.459Z,74.40
2023-02-14T11:13:43.449Z,70.70
2023-02-14T11:16:18.099Z,69.50
2023-02-14T11:18:44.932Z,71.40
2023-02-14T11:21:13.553Z,75.40
2023-02-14T11:23:43.243Z,73.40
2023-02-14T11:26:34.596Z,68.40
2023-02-14T11:29:13.212Z,67.40
2023-02-14T11:31:41.917Z,71.00
2023-02-14T11:34:42.040Z,68.20
2023-02-14T11:37:23.698Z,73.50
2023-02-14T11:39:52.253Z,68.30
2023-02-14T11:42:37.360Z,65.70
2023-02-14T11:45:05.581Z,69.70
2023-02-14T11:47:37.287Z,71.40
2023-02-14T11:50:12.690Z,69.90
2023-02-14T11:52:55.698Z,67.20
2023-02-14T11:55:34.436Z,69.60
2023-02-14T11:58:05.373Z,64.90
2023-02-14T12:00:33.621Z,69.10
2023-02-14T12:03:05.510Z,72.70
2023-02-14T12:05:43.436Z,66.60
2023-02-14T12:08:11.006Z,65.90
2023-02-14T12:10:39.188Z,64.70
2023-02-14T12:13:09.293Z,70.20
2023-02-14T12:15:47.554Z,67.00
2023-02-14T12:18:40.572Z,71.30
2023-02-14T12:21:16.037Z,64.50
2023-02-14T12:23:50.766Z,68.90
2023-02-14T12:26:35.705Z,69.10
2023-02-14T12:29:34.937Z,68.30
2023-02-14T12:32:11.376Z,65.50
2023-02-14T12:34:38.353Z,62.10
2023-02-14T12:37:28.336Z,66.20
2023-02-14T12:40:04.199Z,61.80
2023-02-14T12:42:39.983Z,60.80
2023-02-14T12:45:43.462Z,67.00
2023-02-14T12:48:28.884Z,68.60
2023-02-14T12:51:15.468Z,68.00
2023-02-14T12:53:54.382Z,68.70
2023-02-14T12:56:27.201Z,64.50
2023-02-14T12:59:18.602Z,64.30
2023-02-14T13:02:13.776Z,69.30
2023-02-14T13:05:06.257Z,68.20
2023-02-14T13:07:46.780Z,70.60
2023-02-14T13:10:24.652Z,69.10
2023-02-14T13:12:56.913Z,70.80
2023-02-14T13:15:45.589Z,68.50
2023-02-14T13:18:24.520Z,67.50
2023-02-14T13:20:56.681Z,65.00
2023-02-14T13:23:40.233Z,64.60
2023-02-14T13:26:12.045Z,65.80
2023-02-14T13:28:41.864Z,68.80
2023-02-14T13:31:11.795Z,70.60
2023-02-14T13:33:43.632Z,68.10
2023-02-14T13:36:13.357Z,67.70
2023-02-14T13:38:49.221Z,70.80
2023-02-14T13:41:17.262Z,74.70
2023-02-14T13:43:56.242Z,75.20
2023-02-14T13:46:32.246Z,76.40
2023-02-14T13:49:01.836Z,71.00
2023-02-14T13:51:56.323Z,74.90
2023-02-14T13:54:32.580Z,75.70
2023-02-14T13:57:25.214Z,71.60
2023-02-14T14:00:19.836Z,75.90
2023-02-14T14:02:53.233Z,73.30
2023-02-14T14:05:42.832Z,76.90
2023-02-14T14:08:35.438Z,80.40
2023-02-14T14:11:25.492Z,82.50
2023-02-14T14:14:01.568Z,79.50
2023-02-14T14:16:33.254Z,82.80
2023-02-14T14:19:09.264Z,83.80
2023-02-14T14:21:43.502Z,83.10
2023-02-14T14:24:27.771Z,82.70
2023-02-14T14:27:13.715Z,83.70
2023-02-14T14:29:46.077Z,83.70
2023-02-14T14:32:21.531Z,82.70
2023-02-14T14:34:50.851Z,83.50
2023-02-14T14:37:20.439Z,83.80
2023-02-14T14:40:00.001Z,83.30
2023-02-14T14:42:30.806Z,84.00
2023-02-14T14:45:01.728Z,84.60
2023-02-14T14:47:37.723Z,83.80
2023-02-14T14:50:10.211Z,84.70
2023-02-14T14:52:41.620Z,86.70
2023-02-14T14:55:16.725Z,87.90
2023-02-14T14:57:49.922Z,87.70
2023-02-14T15:00:23.938Z,89.50
2023-02-14T15:03:22.548Z,90.20
2023-02-14T15:05:51.053Z,90.50
2023-02-14T15:08:30.886Z,91.90
2023-02-14T15:11:08.450Z,91.10
2023-02-14T15:13:49.922Z,92.00
2023-02-14T15:16:48.189Z,93.30
2023-02-14T15:19:37.284Z,93.50
2023-02-14T15:22:18.228Z,96.10
2023-02-14T15:24:45.538Z,97.90
2023-02-14T15:27:16.435Z,99.10
2023-02-14T15:30:03.637Z,99.90
2023-02-14T15:32:33.160Z,99.90
2023-02-14T15:35:03.739Z,99.90
2023-02-14T15:37:31.516Z,99.90
2023-02-14T15:39:59.331Z,99.90
2023-02-14T15:42:32.919Z,99.90
2023-02-14T15:45:23.639Z,99.90
2023-02-14T15:47:53.688Z,99.90
2023-02-14T15:50:26.020Z,99.90
2023-02-14T15:52:56.262Z,99.90
2023-02-14T15:55:26.733Z,99.90
2023-02-14T15:58:01.930Z,99.90
2023-02-14T16:00:29.647Z,99.90
2023-02-14T16:03:08.460Z,99.90
2023-02-14T16:05:35.429Z,99.90
2023-02-14T16:08:22.766Z,99.90
2023-02-14T16:11:35.516Z,99.90
2023-02-14T16:14:32.214Z,99.90
2023-02-14T16:17:03.719Z,99.90
2023-02-14T16:19:41.085Z,99.90
2023-02-14T16:22:32.208Z,99.90
2023-02-14T16:24:59.490Z,99.90
2023-02-14T16:27:26.212Z,99.90
2023-02-14T16:29:53.277Z,99.90
2023-02-14T16:32:22.095Z,99.90
2023-02-14T16:34:49.625Z,99.90
2023-02-14T16:37:19.818Z,99.90
2023-02-14T16:39:47.343Z,99.90
2023-02-14T16:42:18.252Z,99.90
2023-02-14T16:44:46.082Z,99.90
2023-02-14T16:47:14.581Z,99.90
2023-02-14T16:49:41.995Z,99.90
2023-02-14T16:52:16.217Z,99.90
2023-02-14T16:54:43.283Z,99.90
2023-02-14T16:57:20.663Z,99.90
2023-02-14T16:59:47.487Z,99.90
2023-02-14T17:02:14.397Z,99.90
2023-02-14T17:04:41.143Z,99.90
2023-02-14T17:07:08.211Z,99.90
2023-02-14T17:09:40.477Z,99.90
2023-02-14T17:12:16.574Z,99.90
2023-02-14T17:14:49.329Z,99.90
2023-02-14T17:17:16.495Z,99.90
2023-02-14T17:19:43.966Z,99.90
2023-02-14T17:22:13.511Z,99.90
2023-02-14T17:24:41.690Z,99.90
2023-02-14T17:27:09.892Z,99.90
2023-02-14T17:29:37.083Z,99.90
2023-02-14T17:32:04.079Z,99.90
2023-02-14T17:34:32.360Z,99.90
2023-02-14T17:36:59.658Z,99.90
2023-02-14T17:39:26.482Z,99.90
2023-02-14T17:41:53.285Z,99.90
2023-02-14T17:44:20.052Z,99.90
2023-02-14T17:46:46.919Z,99.90
2023-02-14T17:49:13.920Z,99.90
2023-02-14T17:51:40.968Z,99.90
2023-02-14T17:54:08.136Z,99.90
2023-02-14T17:56:34.896Z,99.90
2023-02-14T17:59:01.741Z,99.90
2023-02-14T18:01:31.480Z,99.90
2023-02-14T18:03:58.395Z,99.90
2023-02-14T18:06:26.617Z,99.90
2023-02-14T18:08:56.768Z,99.90
2023-02-14T18:11:26.097Z,99.90
2023-02-14T18:13:56.405Z,99.90
2023-02-14T18:16:24.693Z,99.90
2023-02-14T18:18:51.895Z,99.90
2023-02-14T18:21:20.953Z,99.90
2023-02-14T18:23:48.416Z,99.90
2023-02-14T18:26:17.035Z,99.90
2023-02-14T18:28:43.843Z,99.90
2023-02-14T18:31:16.374Z,99.90
2023-02-14T18:33:44.005Z,99.90
2023-02-14T18:36:13.637Z,99.90
2023-02-14T18:38:41.865Z,99.90
2023-02-14T18:41:12.273Z,99.90
2023-02-14T18:43:40.974Z,99.90
2023-02-14T18:46:10.449Z,99.90
2023-02-14T18:48:37.806Z,99.90
2023-02-14T18:51:16.810Z,99.90
2023-02-14T18:53:44.905Z,99.90
2023-02-14T18:56:13.948Z,99.90
2023-02-14T18:58:42.869Z,99.90
2023-02-14T19:01:23.186Z,99.90
2023-02-14T19:03:51.312Z,99.90
2023-02-14T19:06:18.831Z,99.90
2023-02-14T19:08:46.512Z,99.90
2023-02-14T19:11:16.811Z,99.90
2023-02-14T19:13:52.663Z,99.90
2023-02-14T19:16:22.677Z,99.90
2023-02-14T19:18:55.616Z,99.90
2023-02-14T19:21:25.489Z,99.90
2023-02-14T19:23:54.556Z,99.90
2023-02-14T19:26:24.438Z,99.90
2023-02-14T19:28:56.040Z,99.90
2023-02-14T19:31:23.118Z,99.90
2023-02-14T19:33:50.337Z,99.90
2023-02-14T19:36:19.304Z,99.90
2023-02-14T19:38:49.200Z,99.90
2023-02-14T19:41:25.093Z,99.90
2023-02-14T19:43:52.579Z,99.90
2023-02-14T19:46:21.189Z,99.90
2023-02-14T19:48:48.730Z,99.90
2023-02-14T19:51:27.731Z,99.90
2023-02-14T19:53:55.919Z,99.90
2023-02-14T19:56:25.807Z,99.90
2023-02-14T19:58:53.162Z,99.90
2023-02-14T20:01:30.951Z,99.90
2023-02-14T20:03:57.793Z,99.90
2023-02-14T20:06:25.550Z,99.90
2023-02-14T20:08:53.013Z,99.90
2023-02-14T20:11:31.030Z,99.90
2023-02-14T20:13:58.476Z,99.90
2023-02-14T20:16:27.261Z,99.90
2023-02-14T20:19:02.256Z,99.90
2023-02-14T20:21:31.680Z,99.90
2023-02-14T20:24:03.057Z,99.90
2023-02-14T20:26:31.345Z,99.90
2023-02-14T20:29:06.179Z,99.90
2023-02-14T20:31:34.159Z,99.90
2023-02-14T20:34:01.496Z,99.90
2023-02-14T20:36:28.989Z,99.90
2023-02-14T20:38:57.016Z,99.90
2023-02-14T20:41:24.919Z,99.90
2023-02-14T20:43:51.844Z,99.90
2023-02-14T20:46:18.693Z,99.90
2023-02-14T20:48:45.417Z,99.90
2023-02-14T20:51:15.247Z,99.90
2023-02-14T20:53:43.445Z,99.90
2023-02-14T20:56:10.683Z,99.90
2023-02-14T20:58:39.383Z,99.90
2023-02-14T21:01:10.519Z,99.90
2023-02-14T21:03:37.550Z,99.90
2023-02-14T21:06:06.655Z,99.90
2023-02-14T21:08:34.316Z,99.90
2023-02-14T21:11:01.686Z,99.90
2023-02-14T21:13:28.865Z,99.90
2023-02-14T21:15:55.685Z,99.90
2023-02-14T21:18:22.443Z,99.90
2023-02-14T21:20:50.831Z,99.90
2023-02-14T21:23:17.623Z,99.90
2023-02-14T21:25:44.367Z,99.90
2023-02-14T21:28:11.179Z,99.90
2023-02-14T21:30:38.117Z,99.90
2023-02-14T21:33:04.893Z,99.90
2023-02-14T21:35:31.635Z,99.90
2023-02-14T21:37:58.452Z,99.90
2023-02-14T21:40:25.324Z,99.90
2023-02-14T21:42:52.047Z,99.90
2023-02-14T21:45:37.315Z,99.90
2023-02-14T21:48:23.076Z,99.90
2023-02-14T21:50:49.905Z,99.90
2023-02-14T21:53:16.716Z,99.90
2023-02-14T21:55:45.919Z,99.90
2023-02-14T21:58:13.172Z,99.90
2023-02-14T22:00:40.027Z,99.90
2023-02-14T22:03:06.839Z,99.90
2023-02-14T22:05:33.603Z,99.90
2023-02-14T22:08:00.353Z,99.90
2023-02-14T22:10:27.148Z,99.90
2023-02-14T22:12:53.880Z,99.90
2023-02-14T22:15:20.596Z,99.90
2023-02-14T22:17:47.346Z,99.90
2023-02-14T22:20:14.086Z,99.90
2023-02-14T22:22:40.829Z,99.90
2023-02-14T22:25:07.793Z,99.90
2023-02-14T22:27:39.090Z,99.90
2023-02-14T22:30:07.420Z,99.90
2023-02-14T22:32:34.137Z,99.90
2023-02-14T22:35:00.913Z,99.90
2023-02-14T22:37:27.679Z,99.90
2023-02-14T22:39:54.513Z,99.90
2023-02-14T22:42:21.276Z,99.90
2023-02-14T22:44:48.075Z,99.90
2023-02-14T22:47:14.869Z,99.90
2023-02-14T22:49:41.569Z,99.90
2023-02-14T22:52:08.374Z,99.90
2023-02-14T22:54:35.215Z,99.90
2023-02-14T22:57:01.983Z,99.90
2023-02-14T22:59:31.128Z,99.90
2023-02-14T23:01:58.252Z,99.90
2023-02-14T23:04:25.903Z,99.90
2023-02-14T23:06:53.249Z,99.90
2023-02-14T23:09:20.520Z,99.90
2023-02-14T23:11:47.710Z,99.90
2023-02-14T23:14:35.086Z,99.90
2023-02-14T23:17:14.590Z,99.90
2023-02-14T23:20:01.235Z,99.90
2023-02-14T23:22:36.798Z,99.90
2023-02-14T23:25:07.579Z,99.90
2023-02-14T23:27:41.711Z,99.90
2023-02-14T23:30:13.647Z,99.90
2023-02-14T23:32:40.621Z,99.90
2023-02-14T23:35:07.556Z,99.90
2023-02-14T23:37:34.532Z,99.90
2023-02-14T23:40:01.323Z,99.90
2023-02-14T23:42:28.248Z,99.90
2023-02-14T23:45:15.005Z,99.90
2023-02-14T23:47:41.844Z,99.90
2023-02-14T23:50:09.031Z,99.90
2023-02-14T23:52:38.301Z,99.90
2023-02-14T23:55:05.679Z,99.90
2023-02-14T23:57:32.422Z,99.90
